Time;durP1;ratioP1;P1;durP2;ratioP2;P2;SDS_P1;SDS_P2;PMS_P1;PMS_P2;Temp;Humidity;BMP_temperature;BMP_pressure;BME280_temperature;BME280_humidity;BME280_pressure;Samples;Min_cycle;Max_cycle;Signal;HPM_P1;HPM_P2
2021/12/07 00:00:13;;;;;;;12.50;6.47;;;15.30;77.40;;;;;;2021559;28;20172;-80
2021/12/07 00:01:11;;;;;;;15.65;7.65;;;15.30;77.20;;;;;;2021403;28;20179;-79
2021/12/07 00:02:11;;;;;;;10.33;7.00;;;15.30;77.10;;;;;;2021406;28;20256;-79
2021/12/07 00:03:10;;;;;;;10.10;6.78;;;15.20;77.10;;;;;;2021450;28;20171;-79
2021/12/07 00:04:09;;;;;;;14.65;7.18;;;15.30;77.40;;;;;;2021751;28;20665;-79
2021/12/07 00:05:08;;;;;;;10.07;7.20;;;15.30;77.60;;;;;;2021389;28;20544;-78
2021/12/07 00:06:08;;;;;;;14.32;7.72;;;15.30;77.40;;;;;;2020659;28;20778;-79
2021/12/07 00:07:07;;;;;;;11.68;7.90;;;15.30;77.40;;;;;;2020808;28;20188;-79
2021/12/07 00:08:06;;;;;;;13.17;6.90;;;15.30;77.40;;;;;;2020891;28;20623;-80
2021/12/07 00:09:07;;;;;;;11.77;7.03;;;15.20;77.30;;;;;;2021509;28;20208;-79
2021/12/07 00:10:06;;;;;;;14.63;7.93;;;15.20;77.20;;;;;;2021350;28;20402;-79
2021/12/07 00:11:06;;;;;;;14.90;7.00;;;15.20;77.40;;;;;;2021656;28;20690;-78
2021/12/07 00:12:06;;;;;;;11.43;6.85;;;15.20;77.40;;;;;;2020654;28;20190;-79
2021/12/07 00:13:05;;;;;;;10.15;7.47;;;15.20;77.40;;;;;;2020697;28;20187;-79
2021/12/07 00:14:12;;;;;;;12.30;6.80;;;15.20;77.30;;;;;;2020793;28;20175;-80
2021/12/07 00:15:14;;;;;;;10.70;7.03;;;15.20;77.30;;;;;;2021312;28;20303;-79
2021/12/07 00:16:13;;;;;;;13.00;6.82;;;15.20;77.00;;;;;;2021234;28;20196;-79
2021/12/07 00:17:12;;;;;;;10.00;6.45;;;15.20;77.30;;;;;;2021135;28;20255;-80
2021/12/07 00:18:11;;;;;;;9.73;6.93;;;15.20;77.30;;;;;;2020572;28;20185;-80
2021/12/07 00:19:12;;;;;;;9.93;6.70;;;15.20;77.30;;;;;;2020786;28;20459;-79
2021/12/07 00:20:14;;;;;;;11.65;6.20;;;15.20;77.60;;;;;;2021337;28;20168;-81
2021/12/07 00:21:16;;;;;;;12.95;7.70;;;15.20;77.50;;;;;;2021272;28;20184;-79
2021/12/07 00:22:14;;;;;;;15.90;6.93;;;15.10;77.40;;;;;;2021478;28;20274;-79
2021/12/07 00:23:13;;;;;;;13.83;6.70;;;15.10;77.50;;;;;;2021376;28;20539;-79
2021/12/07 00:24:14;;;;;;;11.37;6.70;;;15.20;77.30;;;;;;2021308;28;20175;-79
2021/12/07 00:25:13;;;;;;;14.18;7.25;;;15.20;77.50;;;;;;2021352;28;20257;-80
2021/12/07 00:26:12;;;;;;;12.80;7.47;;;15.20;77.30;;;;;;2021293;28;20266;-80
2021/12/07 00:27:11;;;;;;;9.73;6.57;;;15.10;77.30;;;;;;2021345;28;20646;-80
2021/12/07 00:28:09;;;;;;;14.37;7.50;;;15.20;77.50;;;;;;2020711;28;20188;-81
2021/12/07 00:29:09;;;;;;;18.90;7.40;;;15.20;77.30;;;;;;2020726;28;20172;-79
2021/12/07 00:30:10;;;;;;;11.60;6.45;;;15.20;77.30;;;;;;2021081;28;20702;-79
2021/12/07 00:31:27;;;;;;;16.55;8.30;;;15.20;77.30;;;;;;2021316;28;20179;-79
2021/12/07 00:32:31;;;;;;;12.00;7.13;;;15.20;77.60;;;;;;2021365;28;20179;-79
2021/12/07 00:33:37;;;;;;;12.70;7.65;;;15.10;77.30;;;;;;2020886;28;20180;-79
2021/12/07 00:35:35;;;;;;;10.80;7.30;;;15.10;77.50;;;;;;2020860;28;20231;-80
2021/12/07 00:36:44;;;;;;;13.48;7.97;;;15.10;77.80;;;;;;2021137;28;20219;-79
2021/12/07 00:37:47;;;;;;;14.75;7.70;;;15.20;77.50;;;;;;2021247;28;20149;-79
2021/12/07 00:38:46;;;;;;;11.65;6.80;;;15.10;77.30;;;;;;2021166;28;20191;-79
2021/12/07 00:39:44;;;;;;;14.68;8.05;;;15.10;77.50;;;;;;2022935;28;20187;-79
2021/12/07 00:40:44;;;;;;;13.13;7.40;;;15.10;77.50;;;;;;2022393;28;20227;-78
2021/12/07 00:41:43;;;;;;;12.30;6.95;;;15.10;77.20;;;;;;2021917;28;20190;-79
2021/12/07 00:42:41;;;;;;;12.98;7.32;;;15.10;77.40;;;;;;2021308;28;20175;-79
2021/12/07 00:43:40;;;;;;;9.70;6.40;;;15.10;77.50;;;;;;2027029;28;20164;-78
2021/12/07 00:44:39;;;;;;;13.93;7.90;;;15.10;77.70;;;;;;2021340;28;20627;-79
2021/12/07 00:45:42;;;;;;;11.50;7.20;;;15.10;77.40;;;;;;2020812;28;20176;-79
2021/12/07 00:46:41;;;;;;;14.75;8.10;;;15.10;78.20;;;;;;2024308;28;20753;-78
2021/12/07 00:47:40;;;;;;;12.47;6.90;;;15.10;77.30;;;;;;2022826;28;20214;-79
2021/12/07 00:48:38;;;;;;;9.37;6.80;;;15.10;77.50;;;;;;2022408;28;20168;-79
2021/12/07 00:49:37;;;;;;;10.53;6.93;;;15.10;77.60;;;;;;2022012;28;20187;-78
2021/12/07 00:50:37;;;;;;;10.67;6.70;;;15.10;77.70;;;;;;2021766;28;20172;-79
2021/12/07 00:51:35;;;;;;;11.38;7.00;;;15.10;77.80;;;;;;2021473;28;20180;-79
2021/12/07 00:52:35;;;;;;;10.53;7.37;;;15.10;77.80;;;;;;2021527;28;20225;-79
2021/12/07 00:53:34;;;;;;;19.13;7.90;;;15.10;77.70;;;;;;2021394;28;20182;-80
2021/12/07 00:54:33;;;;;;;11.27;7.00;;;15.10;77.70;;;;;;2021112;28;20182;-78
2021/12/07 00:55:34;;;;;;;10.60;6.63;;;15.10;77.60;;;;;;2021016;28;20745;-79
2021/12/07 00:56:33;;;;;;;10.48;6.53;;;15.10;77.80;;;;;;2020974;28;20196;-80
2021/12/07 00:57:32;;;;;;;9.60;6.57;;;15.10;77.80;;;;;;2021075;28;20247;-79
2021/12/07 00:58:30;;;;;;;12.67;7.30;;;15.00;77.70;;;;;;2020996;28;20326;-79
2021/12/07 00:59:31;;;;;;;11.60;7.70;;;15.10;77.80;;;;;;2020229;28;20677;-79
2021/12/07 01:00:30;;;;;;;13.55;7.18;;;15.00;77.60;;;;;;2021119;28;20172;-79
2021/12/07 01:01:29;;;;;;;10.25;6.82;;;15.10;77.70;;;;;;2021234;28;20168;-79
2021/12/07 01:02:27;;;;;;;11.03;6.30;;;15.00;77.70;;;;;;2020895;28;20206;-79
2021/12/07 01:03:27;;;;;;;11.47;7.00;;;15.00;77.90;;;;;;2020901;28;20168;-79
2021/12/07 01:04:28;;;;;;;13.77;6.90;;;15.00;77.70;;;;;;2021026;28;20167;-78
2021/12/07 01:05:30;;;;;;;15.10;7.57;;;15.10;77.80;;;;;;2020369;28;20260;-79
2021/12/07 01:06:33;;;;;;;12.80;6.90;;;15.10;77.70;;;;;;2020185;28;20226;-79
2021/12/07 01:07:54;;;;;;;12.60;7.47;;;15.00;77.90;;;;;;2021098;28;20156;-79
2021/12/07 01:24:42;;;;;;;10.88;7.30;;;14.90;77.80;;;;;;2021054;28;20160;-78
2021/12/07 01:25:40;;;;;;;10.15;7.38;;;14.90;77.80;;;;;;2020945;28;20164;-79
2021/12/07 01:26:39;;;;;;;11.90;6.80;;;14.90;77.70;;;;;;2020707;28;20682;-79
2021/12/07 01:27:38;;;;;;;9.83;6.90;;;14.90;77.80;;;;;;2020842;28;20172;-78
2021/12/07 01:28:38;;;;;;;11.23;6.40;;;15.00;77.90;;;;;;2021012;28;20176;-78
2021/12/07 01:29:39;;;;;;;11.50;7.43;;;15.00;77.80;;;;;;2020736;28;20178;-79
2021/12/07 01:30:59;;;;;;;10.02;6.97;;;14.90;77.60;;;;;;2020880;28;20168;-79
2021/12/07 01:35:56;;;;;;;10.60;6.65;;;14.90;77.90;;;;;;2020844;28;20195;-78
2021/12/07 01:37:28;;;;;;;10.35;6.70;;;14.90;78.00;;;;;;2020029;28;20168;-79
2021/12/07 01:47:23;;;;;;;14.02;7.63;;;14.90;78.00;;;;;;2020880;28;20277;-79
2021/12/07 01:59:37;;;;;;;10.55;6.70;;;14.90;78.00;;;;;;2021073;28;20199;-79
2021/12/07 02:00:40;;;;;;;9.55;5.90;;;14.80;77.80;;;;;;2020608;28;20164;-79
2021/12/07 02:01:38;;;;;;;12.35;7.95;;;14.80;78.00;;;;;;2020516;28;20322;-78
2021/12/07 02:02:37;;;;;;;9.97;6.60;;;14.90;78.00;;;;;;2019941;28;20171;-78
2021/12/07 02:03:38;;;;;;;10.97;6.87;;;14.90;78.00;;;;;;2020049;28;20596;-79
2021/12/07 02:04:38;;;;;;;10.93;6.88;;;14.90;78.10;;;;;;2020506;28;20183;-79
2021/12/07 02:05:37;;;;;;;11.30;6.80;;;14.90;78.20;;;;;;2020765;28;20214;-79
2021/12/07 02:06:36;;;;;;;12.47;7.47;;;15.00;78.30;;;;;;2020648;28;20180;-79
2021/12/07 02:07:34;;;;;;;13.13;7.23;;;15.00;78.30;;;;;;2020650;28;20263;-79
2021/12/07 02:08:33;;;;;;;11.73;6.80;;;15.00;77.80;;;;;;2019893;28;20184;-79
2021/12/07 02:09:34;;;;;;;10.80;6.63;;;15.00;78.00;;;;;;2019904;28;20175;-79
2021/12/07 02:10:33;;;;;;;12.93;7.40;;;15.00;78.00;;;;;;2019721;28;20187;-79
2021/12/07 02:11:32;;;;;;;10.50;6.20;;;15.00;78.00;;;;;;2020024;28;20183;-78
2021/12/07 02:12:41;;;;;;;10.90;6.43;;;14.90;77.70;;;;;;2020549;28;20168;-79
2021/12/07 02:14:40;;;;;;;9.67;6.57;;;15.10;77.90;;;;;;2020345;28;20175;-79
2021/12/07 02:15:38;;;;;;;12.27;7.05;;;15.00;77.70;;;;;;2020514;28;20187;-79
2021/12/07 02:16:37;;;;;;;11.63;7.20;;;15.00;77.70;;;;;;2020406;28;20200;-80
2021/12/07 02:17:36;;;;;;;10.80;6.83;;;15.00;77.40;;;;;;2020616;28;20168;-80
2021/12/07 02:18:34;;;;;;;9.10;6.23;;;15.00;77.70;;;;;;2020496;28;20168;-80
2021/12/07 02:19:33;;;;;;;12.50;6.80;;;15.00;77.50;;;;;;2020718;28;20160;-81
2021/12/07 02:20:32;;;;;;;11.50;7.17;;;15.00;77.40;;;;;;2020600;28;20160;-80
2021/12/07 02:21:30;;;;;;;11.97;8.13;;;15.00;77.50;;;;;;2020639;28;20175;-80
2021/12/07 02:22:29;;;;;;;11.50;7.57;;;15.00;77.40;;;;;;2019835;28;20183;-80
2021/12/07 02:23:27;;;;;;;13.73;7.50;;;15.00;77.50;;;;;;2019952;28;20172;-80
2021/12/07 02:24:26;;;;;;;12.10;8.20;;;15.00;77.60;;;;;;2020562;28;20170;-80
2021/12/07 02:25:25;;;;;;;10.90;6.45;;;15.00;77.70;;;;;;2020344;28;20171;-80
2021/12/07 02:26:25;;;;;;;9.20;6.20;;;15.00;78.00;;;;;;2020404;28;20191;-80
2021/12/07 02:27:24;;;;;;;12.10;7.30;;;15.00;77.90;;;;;;2020544;28;20518;-79
2021/12/07 02:28:22;;;;;;;12.73;7.03;;;15.00;78.00;;;;;;2020646;28;20226;-78
2021/12/07 02:29:23;;;;;;;11.70;6.83;;;15.00;78.00;;;;;;2020737;28;20174;-79
2021/12/07 02:30:24;;;;;;;12.40;6.53;;;15.00;78.10;;;;;;2020467;28;20631;-79
2021/12/07 02:31:23;;;;;;;11.82;6.93;;;15.00;78.20;;;;;;2020617;28;20266;-81
2021/12/07 02:32:22;;;;;;;11.18;6.55;;;15.00;78.00;;;;;;2020610;28;20504;-79
2021/12/07 02:33:20;;;;;;;12.70;7.40;;;15.00;77.80;;;;;;2020511;28;20275;-79
2021/12/07 02:34:21;;;;;;;10.20;6.73;;;15.00;77.70;;;;;;2020512;28;20187;-80
2021/12/07 02:35:26;;;;;;;16.75;7.53;;;15.10;78.00;;;;;;2020452;28;20195;-79
2021/12/07 02:36:25;;;;;;;12.68;7.35;;;15.00;77.60;;;;;;2020740;28;20241;-79
2021/12/07 02:37:25;;;;;;;11.27;6.00;;;15.00;78.10;;;;;;2020344;28;20601;-80
2021/12/07 02:38:23;;;;;;;14.23;6.90;;;15.10;77.80;;;;;;2020418;28;20167;-80
2021/12/07 02:39:34;;;;;;;10.30;6.60;;;15.10;77.90;;;;;;2020409;28;20174;-80
2021/12/07 02:40:33;;;;;;;14.57;6.65;;;15.10;77.70;;;;;;2020514;28;20156;-80
2021/12/07 02:41:31;;;;;;;13.40;7.50;;;15.10;77.80;;;;;;2020656;28;20215;-80
2021/12/07 02:42:30;;;;;;;12.13;7.70;;;15.00;77.40;;;;;;2020434;28;20179;-80
2021/12/07 02:43:30;;;;;;;12.97;6.83;;;15.10;77.10;;;;;;2020502;28;20163;-80
2021/12/07 02:44:29;;;;;;;10.40;6.80;;;15.10;77.40;;;;;;2020372;28;20172;-80
2021/12/07 02:45:27;;;;;;;9.13;6.63;;;15.10;77.30;;;;;;2020557;28;20539;-80
2021/12/07 02:46:27;;;;;;;15.53;7.30;;;15.10;77.40;;;;;;2020462;28;20191;-79
2021/12/07 02:47:26;;;;;;;9.38;6.72;;;15.10;77.30;;;;;;2020589;28;20259;-79
2021/12/07 02:48:25;;;;;;;9.60;6.50;;;15.10;77.20;;;;;;2020520;28;20523;-79
2021/12/07 02:49:23;;;;;;;15.73;7.40;;;15.10;77.10;;;;;;2020401;28;20179;-79
2021/12/07 02:50:22;;;;;;;11.70;7.47;;;15.10;77.50;;;;;;2020416;28;20497;-79
2021/12/07 02:51:21;;;;;;;10.77;6.53;;;15.10;77.40;;;;;;2020491;28;20164;-80
2021/12/07 02:52:19;;;;;;;9.77;6.43;;;14.80;77.20;;;;;;2020622;28;20362;-79
2021/12/07 02:53:22;;;;;;;9.13;6.93;;;15.10;77.40;;;;;;2019790;28;20258;-79
2021/12/07 02:54:21;;;;;;;9.65;6.53;;;15.00;77.40;;;;;;2019798;28;20184;-79
2021/12/07 02:55:20;;;;;;;9.98;6.38;;;15.10;77.40;;;;;;2020322;28;20203;-80
2021/12/07 02:56:18;;;;;;;10.93;6.80;;;15.10;77.60;;;;;;2020359;28;20192;-79
2021/12/07 02:57:19;;;;;;;8.17;6.70;;;15.10;77.60;;;;;;2020513;28;20528;-79
2021/12/07 02:58:18;;;;;;;9.98;5.80;;;15.10;77.50;;;;;;2011572;28;20204;-79
2021/12/07 02:59:19;;;;;;;13.00;7.53;;;15.10;77.50;;;;;;2011903;28;20175;-79
2021/12/07 03:00:23;;;;;;;9.38;6.22;;;15.10;77.40;;;;;;2020526;28;20242;-79
2021/12/07 03:01:27;;;;;;;12.55;7.45;;;15.10;77.50;;;;;;2020390;28;20160;-79
2021/12/07 03:02:26;;;;;;;14.38;7.65;;;15.10;77.70;;;;;;2020527;28;20159;-80
2021/12/07 03:03:26;;;;;;;10.73;6.82;;;15.10;78.00;;;;;;2020542;28;20252;-79
2021/12/07 03:04:32;;;;;;;10.65;7.22;;;15.10;77.60;;;;;;2020381;28;20245;-79
2021/12/07 03:09:36;;;;;;;12.85;7.32;;;15.10;77.60;;;;;;2020460;28;20238;-80
2021/12/07 03:26:09;;;;;;;11.68;6.45;;;14.90;77.70;;;;;;2021769;28;20272;-81
2021/12/07 03:27:08;;;;;;;11.43;6.60;;;14.90;77.80;;;;;;2021872;28;20243;-80
2021/12/07 03:28:08;;;;;;;11.60;6.90;;;14.90;77.60;;;;;;2021750;28;20183;-80
2021/12/07 03:29:06;;;;;;;14.18;7.47;;;14.90;77.40;;;;;;2021806;28;20575;-80
2021/12/07 03:30:06;;;;;;;10.17;6.93;;;15.00;77.90;;;;;;2021732;28;20245;-80
2021/12/07 03:31:05;;;;;;;10.35;6.10;;;15.00;78.00;;;;;;2021828;28;20529;-80
2021/12/07 03:32:04;;;;;;;9.10;6.30;;;15.00;78.00;;;;;;2021597;28;20207;-80
2021/12/07 03:33:03;;;;;;;13.52;7.90;;;14.90;77.90;;;;;;2021747;28;20413;-80
2021/12/07 03:34:02;;;;;;;9.27;6.67;;;14.90;77.80;;;;;;2021755;28;20180;-80
2021/12/07 03:35:01;;;;;;;11.80;6.65;;;14.90;77.70;;;;;;2021558;28;20418;-80
2021/12/07 03:36:00;;;;;;;8.90;6.00;;;14.90;77.80;;;;;;2021789;28;20172;-81
2021/12/07 03:36:59;;;;;;;10.65;7.10;;;14.90;77.80;;;;;;2021568;28;20258;-80
2021/12/07 03:37:58;;;;;;;11.30;6.30;;;15.00;77.90;;;;;;2021633;28;20548;-80
2021/12/07 03:38:57;;;;;;;10.82;6.40;;;15.00;78.00;;;;;;2021739;28;20183;-80
2021/12/07 03:39:55;;;;;;;8.40;5.87;;;15.00;78.00;;;;;;2021647;28;20180;-81
2021/12/07 03:40:54;;;;;;;8.83;5.93;;;15.00;78.10;;;;;;2021673;28;20414;-80
2021/12/07 03:41:53;;;;;;;11.17;6.23;;;14.90;77.80;;;;;;2021690;28;20666;-80
2021/12/07 03:42:51;;;;;;;9.70;6.13;;;15.00;78.10;;;;;;2021734;28;20398;-80
2021/12/07 03:43:50;;;;;;;11.00;7.20;;;14.90;78.00;;;;;;2021557;28;20172;-80
2021/12/07 03:44:49;;;;;;;11.40;7.20;;;14.90;77.70;;;;;;2021755;28;20163;-80
2021/12/07 03:45:48;;;;;;;13.40;7.07;;;14.90;77.60;;;;;;2021752;28;20904;-80
2021/12/07 03:46:46;;;;;;;10.47;6.30;;;14.90;77.80;;;;;;2021593;28;20316;-80
2021/12/07 03:47:45;;;;;;;9.83;6.33;;;14.90;78.00;;;;;;2021598;28;20406;-80
2021/12/07 03:48:44;;;;;;;12.40;7.10;;;14.90;77.70;;;;;;2021419;28;20207;-80
2021/12/07 03:49:42;;;;;;;11.40;6.40;;;14.90;77.80;;;;;;2021551;28;20183;-80
2021/12/07 03:50:41;;;;;;;9.00;6.20;;;14.90;77.80;;;;;;2021628;28;20455;-79
2021/12/07 03:51:40;;;;;;;8.20;6.30;;;14.90;77.80;;;;;;2021617;28;20715;-80
2021/12/07 03:52:39;;;;;;;11.03;6.60;;;14.90;78.10;;;;;;2021641;28;20175;-79
2021/12/07 03:53:37;;;;;;;11.60;7.30;;;14.90;78.00;;;;;;2021073;28;20168;-80
2021/12/07 03:54:36;;;;;;;10.80;7.07;;;14.90;78.10;;;;;;2021117;28;20200;-79
2021/12/07 03:55:35;;;;;;;13.50;6.73;;;14.90;78.10;;;;;;2021462;28;20838;-80
2021/12/07 03:56:34;;;;;;;11.20;7.07;;;14.90;78.10;;;;;;2021559;28;20214;-80
2021/12/07 03:57:33;;;;;;;12.27;7.57;;;14.90;78.10;;;;;;2021635;28;20409;-80
2021/12/07 03:58:32;;;;;;;11.35;7.57;;;14.90;78.00;;;;;;2021553;28;20398;-80
2021/12/07 03:59:31;;;;;;;10.25;6.95;;;14.90;78.20;;;;;;2021727;28;20160;-79
2021/12/07 04:00:33;;;;;;;11.00;6.87;;;14.90;78.20;;;;;;2021524;28;20175;-80
2021/12/07 04:01:31;;;;;;;10.73;6.55;;;14.90;77.90;;;;;;2021695;28;20206;-80
2021/12/07 04:02:36;;;;;;;9.57;6.40;;;14.90;78.30;;;;;;2021451;28;20645;-80
2021/12/07 04:03:36;;;;;;;9.38;5.93;;;14.90;78.20;;;;;;2021823;28;20175;-80
2021/12/07 04:04:35;;;;;;;14.38;7.57;;;14.90;78.10;;;;;;2021580;28;20590;-80
2021/12/07 04:05:36;;;;;;;10.63;7.03;;;14.90;78.10;;;;;;2021612;28;20180;-80
2021/12/07 04:06:36;;;;;;;10.50;6.10;;;14.90;78.10;;;;;;2021473;28;20253;-80
2021/12/07 04:07:34;;;;;;;11.07;6.97;;;14.80;78.10;;;;;;2021750;28;20171;-79
2021/12/07 04:08:36;;;;;;;10.63;6.90;;;14.90;78.10;;;;;;2021481;28;20180;-80
2021/12/07 04:09:34;;;;;;;12.45;7.03;;;14.90;78.20;;;;;;2021461;28;20246;-80
2021/12/07 04:10:33;;;;;;;10.47;6.60;;;14.90;78.10;;;;;;2021477;28;20172;-79
2021/12/07 04:11:31;;;;;;;12.90;7.37;;;14.90;78.10;;;;;;2021318;28;20678;-79
2021/12/07 04:12:31;;;;;;;13.23;6.80;;;14.80;77.90;;;;;;2021638;28;20261;-79
2021/12/07 04:13:30;;;;;;;13.00;7.22;;;14.80;78.10;;;;;;2021328;28;20168;-79
2021/12/07 04:14:28;;;;;;;10.98;6.93;;;14.80;78.00;;;;;;2023133;28;20175;-79
2021/12/07 04:15:28;;;;;;;10.17;6.53;;;14.90;78.00;;;;;;2023722;28;20234;-79
2021/12/07 04:16:27;;;;;;;9.98;6.70;;;14.90;78.00;;;;;;2024045;28;20203;-79
2021/12/07 04:17:25;;;;;;;12.77;7.13;;;14.90;77.90;;;;;;2023554;28;20223;-79
2021/12/07 04:18:25;;;;;;;10.90;7.10;;;14.90;77.80;;;;;;2021619;28;20168;-79
2021/12/07 04:19:24;;;;;;;11.93;7.07;;;14.90;77.90;;;;;;2021100;28;20251;-79
2021/12/07 04:20:22;;;;;;;10.67;6.73;;;14.90;78.10;;;;;;2021595;28;20182;-80
2021/12/07 04:21:21;;;;;;;10.50;6.03;;;14.90;77.80;;;;;;2020874;28;20178;-79
2021/12/07 04:22:20;;;;;;;10.63;7.07;;;14.90;78.00;;;;;;2020856;28;20160;-79
2021/12/07 04:23:18;;;;;;;13.77;7.83;;;14.90;78.00;;;;;;2021403;28;20961;-79
2021/12/07 04:24:17;;;;;;;11.90;7.40;;;14.90;78.20;;;;;;2021392;28;20163;-79
2021/12/07 04:25:17;;;;;;;13.00;7.67;;;14.90;77.90;;;;;;2021380;28;20206;-80
2021/12/07 04:26:16;;;;;;;11.40;7.22;;;14.90;78.00;;;;;;2021145;28;20215;-81
2021/12/07 04:27:15;;;;;;;10.17;6.60;;;14.90;77.90;;;;;;2021235;28;20615;-80
2021/12/07 04:28:14;;;;;;;13.07;7.20;;;14.90;78.00;;;;;;2021365;28;20415;-80
2021/12/07 04:29:12;;;;;;;10.93;6.85;;;14.90;77.90;;;;;;2021447;28;20172;-79
2021/12/07 04:30:16;;;;;;;9.37;6.90;;;14.80;77.90;;;;;;2021247;28;20585;-80
2021/12/07 04:31:15;;;;;;;10.38;7.10;;;14.80;78.20;;;;;;2021323;28;20533;-80
2021/12/07 04:32:14;;;;;;;11.50;7.60;;;14.80;78.10;;;;;;2021270;28;20219;-80
2021/12/07 04:33:13;;;;;;;9.87;6.73;;;14.90;78.30;;;;;;2021194;28;20421;-79
2021/12/07 04:34:12;;;;;;;10.25;6.57;;;14.90;78.30;;;;;;2021341;28;20222;-80
2021/12/07 04:35:12;;;;;;;7.90;6.23;;;14.90;78.30;;;;;;2021129;28;20576;-80
2021/12/07 04:36:12;;;;;;;12.43;7.57;;;14.90;78.20;;;;;;2021034;28;20247;-80
2021/12/07 04:37:10;;;;;;;9.80;6.95;;;14.90;78.10;;;;;;2021209;28;20195;-80
2021/12/07 04:38:10;;;;;;;10.67;6.80;;;15.00;78.10;;;;;;2021136;28;20535;-80
2021/12/07 04:39:09;;;;;;;11.35;6.15;;;14.90;77.70;;;;;;2021293;28;20171;-80
2021/12/07 04:40:11;;;;;;;11.87;6.27;;;14.90;77.90;;;;;;2021102;28;20626;-80
2021/12/07 04:41:10;;;;;;;11.75;6.68;;;14.90;77.80;;;;;;2020966;28;20222;-80
2021/12/07 04:42:09;;;;;;;11.43;7.40;;;14.90;77.80;;;;;;2020773;28;20679;-80
2021/12/07 04:43:08;;;;;;;14.70;7.87;;;14.90;77.50;;;;;;2021316;28;20437;-81
2021/12/07 04:44:07;;;;;;;13.02;7.20;;;14.90;77.80;;;;;;2021137;28;20176;-80
2021/12/07 04:45:09;;;;;;;11.90;6.80;;;14.90;77.70;;;;;;2021416;28;20607;-81
2021/12/07 04:47:16;;;;;;;11.98;7.35;;;14.90;77.80;;;;;;2020636;28;20175;-80
2021/12/07 04:57:34;;;;;;;10.00;7.50;;;15.00;77.70;;;;;;2021205;28;20218;-79
2021/12/07 04:58:20;;;;;;;10.68;7.13;;;14.90;77.80;;;;;;2020377;28;20242;-79
2021/12/07 04:59:19;;;;;;;11.67;6.40;;;14.90;77.80;;;;;;2021031;28;20163;-78
2021/12/07 05:00:24;;;;;;;11.40;6.37;;;14.90;77.80;;;;;;2021070;28;20168;-79
2021/12/07 05:01:24;;;;;;;10.60;6.80;;;14.90;77.90;;;;;;2021043;28;20183;-79
2021/12/07 05:02:23;;;;;;;10.73;6.68;;;15.00;78.00;;;;;;2021344;28;20248;-79
2021/12/07 05:03:23;;;;;;;11.73;6.67;;;15.00;77.60;;;;;;2021045;28;20635;-80
2021/12/07 05:04:26;;;;;;;9.65;5.95;;;14.90;77.40;;;;;;2021074;28;20247;-79
2021/12/07 05:05:31;;;;;;;11.32;6.97;;;15.00;78.00;;;;;;2021309;28;20176;-79
2021/12/07 05:06:32;;;;;;;11.57;7.35;;;15.00;77.80;;;;;;2020441;28;20207;-80
2021/12/07 05:07:37;;;;;;;10.35;6.65;;;15.00;78.00;;;;;;2020395;28;20184;-80
2021/12/07 05:10:02;;;;;;;11.03;7.83;;;15.00;77.70;;;;;;2020692;28;20270;-79
2021/12/07 05:12:18;;;;;;;8.97;6.40;;;14.90;77.70;;;;;;2021095;28;20649;-79
2021/12/07 05:15:23;;;;;;;13.90;7.23;;;14.90;77.60;;;;;;2021884;28;20222;-80
2021/12/07 05:16:41;;;;;;;11.60;6.80;;;15.00;77.80;;;;;;2021052;28;20218;-79
2021/12/07 05:18:24;;;;;;;10.75;6.50;;;15.00;77.90;;;;;;2020812;28;20254;-79
2021/12/07 05:34:32;;;;;;;13.25;7.10;;;15.00;77.50;;;;;;2021610;28;20630;-79
2021/12/07 05:37:53;;;;;;;10.60;7.50;;;14.90;77.80;;;;;;2022227;28;20156;-80
2021/12/07 05:38:51;;;;;;;10.18;6.72;;;14.80;77.70;;;;;;2020926;28;20229;-80
2021/12/07 05:39:50;;;;;;;12.97;6.87;;;14.90;78.10;;;;;;2020954;28;20610;-79
2021/12/07 05:40:49;;;;;;;11.10;6.50;;;14.90;77.90;;;;;;2020438;28;20171;-79
2021/12/07 05:41:47;;;;;;;12.30;7.00;;;14.90;77.80;;;;;;2020758;28;20402;-79
2021/12/07 05:42:47;;;;;;;11.20;6.80;;;14.90;77.60;;;;;;2021148;28;20217;-79
2021/12/07 05:43:46;;;;;;;11.10;6.55;;;14.90;78.10;;;;;;2020913;28;20167;-79
2021/12/07 05:44:45;;;;;;;12.70;7.25;;;14.90;78.10;;;;;;2020816;28;20263;-79
2021/12/07 05:45:43;;;;;;;9.60;5.87;;;14.90;78.00;;;;;;2020431;28;20179;-78
2021/12/07 05:46:42;;;;;;;13.73;7.10;;;14.90;77.90;;;;;;2020063;28;20203;-79
2021/12/07 05:47:41;;;;;;;9.67;6.67;;;14.90;78.10;;;;;;2020415;28;20241;-78
2021/12/07 05:48:42;;;;;;;10.73;6.93;;;14.90;77.80;;;;;;2020919;28;20596;-78
2021/12/07 05:49:41;;;;;;;10.00;6.97;;;14.90;78.00;;;;;;2020111;28;20180;-79
2021/12/07 05:50:41;;;;;;;9.63;5.97;;;14.90;77.80;;;;;;2020109;28;20175;-79
2021/12/07 05:51:39;;;;;;;9.20;6.20;;;14.90;78.00;;;;;;2020866;28;20186;-78
2021/12/07 05:52:38;;;;;;;8.77;5.90;;;14.60;77.90;;;;;;2021157;28;20219;-79
2021/12/07 05:53:36;;;;;;;10.87;6.50;;;14.90;78.00;;;;;;2021233;28;20183;-79
2021/12/07 05:54:35;;;;;;;12.37;6.80;;;14.90;77.90;;;;;;2020778;28;20262;-78
2021/12/07 05:55:35;;;;;;;10.87;6.80;;;14.90;77.90;;;;;;2020490;28;20283;-77
2021/12/07 05:56:34;;;;;;;14.05;7.43;;;14.90;77.90;;;;;;2020845;28;20431;-78
2021/12/07 05:57:33;;;;;;;11.70;7.50;;;14.80;77.80;;;;;;2021631;28;20172;-78
2021/12/07 05:58:31;;;;;;;14.23;7.33;;;14.80;78.00;;;;;;2021735;28;20167;-78
2021/12/07 05:59:30;;;;;;;15.50;7.80;;;14.80;77.90;;;;;;2022744;28;20457;-79
2021/12/07 06:00:32;;;;;;;9.87;7.03;;;14.80;78.20;;;;;;2022030;28;20174;-78
2021/12/07 06:01:31;;;;;;;14.05;7.60;;;14.80;78.20;;;;;;2022017;28;20225;-77
2021/12/07 06:02:29;;;;;;;10.87;6.70;;;14.80;77.80;;;;;;2022420;28;20175;-77
2021/12/07 06:03:28;;;;;;;13.60;8.27;;;14.80;77.70;;;;;;2023058;28;20172;-77
2021/12/07 06:04:30;;;;;;;11.67;6.67;;;14.80;77.60;;;;;;2022346;28;20182;-78
2021/12/07 06:05:29;;;;;;;12.27;7.20;;;14.70;77.70;;;;;;2022057;28;20191;-79
2021/12/07 06:06:28;;;;;;;12.13;6.50;;;14.80;78.00;;;;;;2021005;28;20257;-79
2021/12/07 06:07:26;;;;;;;11.50;6.90;;;14.80;78.20;;;;;;2023352;28;20217;-79
2021/12/07 06:08:25;;;;;;;12.20;7.33;;;14.90;78.40;;;;;;2022415;28;20199;-79
2021/12/07 06:09:24;;;;;;;9.07;6.30;;;14.90;78.20;;;;;;2020771;28;20224;-80
2021/12/07 06:10:23;;;;;;;11.40;6.60;;;14.90;78.10;;;;;;2020849;28;20172;-80
2021/12/07 06:11:24;;;;;;;13.55;7.30;;;14.90;78.20;;;;;;2020747;28;20194;-80
2021/12/07 06:12:22;;;;;;;10.10;7.40;;;14.90;78.10;;;;;;2020736;28;20215;-79
2021/12/07 06:13:21;;;;;;;9.00;6.77;;;14.90;78.10;;;;;;2020703;28;20634;-80
2021/12/07 06:14:28;;;;;;;11.52;6.50;;;14.90;78.10;;;;;;2020188;28;20176;-80
2021/12/07 06:15:31;;;;;;;15.00;6.82;;;14.80;77.90;;;;;;2019735;28;20207;-80
2021/12/07 06:16:31;;;;;;;12.00;7.00;;;14.90;78.40;;;;;;2019889;28;20196;-80
2021/12/07 06:17:30;;;;;;;11.77;7.10;;;14.90;78.40;;;;;;2020830;28;20167;-80
2021/12/07 06:18:28;;;;;;;10.43;6.70;;;14.80;78.20;;;;;;2020724;28;20536;-80
2021/12/07 06:19:27;;;;;;;8.23;6.00;;;14.80;78.10;;;;;;2020020;28;20172;-80
2021/12/07 06:20:26;;;;;;;11.40;6.20;;;14.80;78.30;;;;;;2012108;28;20172;-80
2021/12/07 06:21:25;;;;;;;8.47;6.10;;;14.90;78.10;;;;;;2019730;28;20843;-79
2021/12/07 06:22:24;;;;;;;11.77;6.90;;;14.90;78.50;;;;;;2019609;28;20554;-80
2021/12/07 06:23:22;;;;;;;9.77;5.77;;;14.90;78.20;;;;;;2020145;28;20274;-80
2021/12/07 06:24:22;;;;;;;9.27;6.37;;;14.90;78.20;;;;;;2020688;28;20172;-80
2021/12/07 06:25:21;;;;;;;9.13;5.95;;;14.90;78.40;;;;;;2020529;28;20204;-80
2021/12/07 06:26:20;;;;;;;11.77;7.10;;;14.90;77.90;;;;;;2020457;28;20191;-80
2021/12/07 06:27:18;;;;;;;13.55;7.13;;;14.90;77.90;;;;;;2020642;28;20258;-80
2021/12/07 06:28:18;;;;;;;11.63;7.20;;;14.90;78.10;;;;;;2020472;28;20172;-80
2021/12/07 06:29:16;;;;;;;9.57;5.60;;;14.80;78.00;;;;;;2019797;28;20181;-80
2021/12/07 06:30:15;;;;;;;12.07;6.53;;;14.90;78.20;;;;;;2020024;28;20266;-81
2021/12/07 06:31:14;;;;;;;13.57;7.23;;;14.90;78.20;;;;;;2020566;28;20235;-80
2021/12/07 06:32:12;;;;;;;12.07;8.20;;;14.80;78.10;;;;;;2020649;28;20255;-80
2021/12/07 06:33:12;;;;;;;16.00;7.00;;;14.90;78.00;;;;;;2020600;28;20180;-80
2021/12/07 06:34:11;;;;;;;13.18;7.03;;;14.90;78.40;;;;;;2020516;28;20230;-80
2021/12/07 06:35:10;;;;;;;13.73;7.40;;;14.80;78.20;;;;;;2020900;28;20378;-81
2021/12/07 06:36:09;;;;;;;10.97;6.50;;;14.90;78.10;;;;;;2020666;28;20167;-80
2021/12/07 06:37:08;;;;;;;12.70;6.30;;;14.90;78.10;;;;;;2020836;28;20422;-80
2021/12/07 06:38:07;;;;;;;11.50;6.93;;;14.90;77.90;;;;;;2020750;28;20232;-81
2021/12/07 06:39:07;;;;;;;10.65;6.28;;;14.90;78.30;;;;;;2020848;28;20580;-80
2021/12/07 06:40:09;;;;;;;8.77;5.80;;;14.90;78.20;;;;;;2020471;28;20225;-80
2021/12/07 06:41:08;;;;;;;13.18;7.40;;;14.90;78.20;;;;;;2021887;28;20643;-79
2021/12/07 06:42:06;;;;;;;9.37;5.83;;;14.90;78.20;;;;;;2022148;28;20171;-80
2021/12/07 06:43:05;;;;;;;9.03;5.63;;;14.80;77.90;;;;;;2022132;28;20172;-80